Time;durP1;ratioP1;P1;durP2;ratioP2;P2;SDS_P1;SDS_P2;PMS_P1;PMS_P2;Temp;Humidity;BMP_temperature;BMP_pressure;BME280_temperature;BME280_humidity;BME280_pressure;Samples;Min_cycle;Max_cycle;Signal;HPM_P1;HPM_P2
2022/03/09 00:00:32;;;;;;;;;0.00;0.00;20.40;99.90;;;;;;5056766;28;8946;-58
2022/03/09 00:03:04;;;;;;;;;0.00;0.00;20.40;99.90;;;;;;5050267;28;10324;-58
2022/03/09 00:05:34;;;;;;;;;0.00;0.00;20.40;99.90;;;;;;5054157;28;9093;-58
2022/03/09 00:08:03;;;;;;;;;0.67;0.67;20.40;99.90;;;;;;5051733;28;9167;-58
2022/03/09 00:10:35;;;;;;;;;0.00;0.00;20.40;99.90;;;;;;5050964;28;9028;-57
2022/03/09 00:13:06;;;;;;;;;0.33;0.33;20.40;99.90;;;;;;5050827;28;8935;-58
2022/03/09 00:15:38;;;;;;;;;0.00;0.00;20.40;99.90;;;;;;5050555;28;9716;-59
2022/03/09 00:18:09;;;;;;;;;0.00;0.00;20.40;99.90;;;;;;5040759;28;9050;-59
2022/03/09 00:20:42;;;;;;;;;0.00;0.00;20.40;99.90;;;;;;5050012;28;9170;-59
2022/03/09 00:23:13;;;;;;;;;0.00;0.00;20.40;99.90;;;;;;5047391;28;9765;-59
2022/03/09 00:25:46;;;;;;;;;0.67;0.67;20.40;99.90;;;;;;5046305;28;9878;-58
2022/03/09 00:28:16;;;;;;;;;0.00;0.00;20.40;99.90;;;;;;5043393;28;9238;-58
2022/03/09 00:30:47;;;;;;;;;0.00;0.00;20.30;99.90;;;;;;5043193;28;9108;-59
2022/03/09 00:33:18;;;;;;;;;1.00;1.00;20.40;99.90;;;;;;5052617;28;9026;-58
2022/03/09 00:35:50;;;;;;;;;0.00;0.00;20.40;99.90;;;;;;5046092;28;8920;-58
2022/03/09 00:38:21;;;;;;;;;0.00;0.00;20.30;99.90;;;;;;5052911;28;9772;-57
2022/03/09 00:40:53;;;;;;;;;0.00;0.00;20.40;99.90;;;;;;5049482;28;9007;-57
2022/03/09 00:43:24;;;;;;;;;1.00;1.00;20.30;99.90;;;;;;5052155;28;9112;-60
2022/03/09 00:45:54;;;;;;;;;0.00;0.00;20.30;99.90;;;;;;5046495;28;9090;-54
2022/03/09 00:48:27;;;;;;;;;0.00;0.00;20.40;99.90;;;;;;5050090;28;9262;-52
2022/03/09 00:50:59;;;;;;;;;0.00;0.00;20.30;99.90;;;;;;5047810;28;9038;-58
2022/03/09 00:53:30;;;;;;;;;0.00;0.00;20.30;99.90;;;;;;5052889;28;9120;-58
2022/03/09 00:56:00;;;;;;;;;0.00;0.00;20.30;99.90;;;;;;5046713;28;9116;-58
2022/03/09 00:58:32;;;;;;;;;0.00;0.00;20.20;99.90;;;;;;5054574;28;9099;-55
2022/03/09 01:01:03;;;;;;;;;0.33;0.33;20.20;99.90;;;;;;5042031;28;8948;-58
2022/03/09 01:03:34;;;;;;;;;0.00;0.00;20.20;99.90;;;;;;5047446;28;9118;-53
2022/03/09 01:06:05;;;;;;;;;0.67;0.67;20.10;99.90;;;;;;5043827;28;9185;-58
2022/03/09 01:08:36;;;;;;;;;1.00;1.00;20.10;99.90;;;;;;5045395;28;9161;-57
2022/03/09 01:11:06;;;;;;;;;1.00;1.00;20.10;99.90;;;;;;5046205;28;9170;-57
2022/03/09 01:13:38;;;;;;;;;1.00;1.00;20.00;99.90;;;;;;5050827;28;9337;-57
2022/03/09 01:16:10;;;;;;;;;1.67;1.33;20.00;99.90;;;;;;5043042;28;9293;-55
2022/03/09 01:18:42;;;;;;;;;1.00;1.00;20.00;99.90;;;;;;5045699;28;9467;-58
2022/03/09 01:21:15;;;;;;;;;0.33;0.33;19.90;99.90;;;;;;5044469;28;9258;-59
2022/03/09 01:23:46;;;;;;;;;1.00;1.00;19.90;99.90;;;;;;5042752;28;9450;-58
2022/03/09 01:26:17;;;;;;;;;1.00;1.00;19.90;99.90;;;;;;5050784;28;9451;-58
2022/03/09 01:28:48;;;;;;;;;1.00;1.00;19.80;99.90;;;;;;5054320;28;9104;-54
2022/03/09 01:31:19;;;;;;;;;0.00;0.00;19.80;99.90;;;;;;5047694;28;9302;-58
2022/03/09 01:33:50;;;;;;;;;0.00;0.00;19.80;99.90;;;;;;5044285;28;9272;-54
2022/03/09 01:36:24;;;;;;;;;0.67;0.67;19.80;99.90;;;;;;5052865;28;9184;-58
2022/03/09 01:38:54;;;;;;;;;1.00;1.00;19.70;99.90;;;;;;5043489;28;9708;-54
2022/03/09 01:41:25;;;;;;;;;1.00;1.00;19.70;99.90;;;;;;5046107;28;9405;-53
2022/03/09 01:44:14;;;;;;;;;1.00;1.00;19.70;99.90;;;;;;5046119;28;9424;-57
2022/03/09 01:46:48;;;;;;;;;2.67;1.33;19.60;99.90;;;;;;5046504;28;9391;-57
2022/03/09 01:49:20;;;;;;;;;2.67;1.00;19.60;99.90;;;;;;5042309;28;9593;-57
2022/03/09 01:51:55;;;;;;;;;1.00;1.00;19.60;99.90;;;;;;5048133;28;9503;-58
2022/03/09 01:54:25;;;;;;;;;2.75;1.25;19.60;99.90;;;;;;5044081;28;9617;-57
2022/03/09 01:56:59;;;;;;;;;1.67;1.67;19.50;99.90;;;;;;5050547;28;9814;-57
2022/03/09 01:59:32;;;;;;;;;1.00;1.00;19.60;99.90;;;;;;5021076;28;9771;-57
2022/03/09 02:02:03;;;;;;;;;1.00;1.00;19.40;99.90;;;;;;5048205;28;9620;-58
2022/03/09 02:04:35;;;;;;;;;2.50;2.50;19.30;99.90;;;;;;5041988;28;9575;-57
2022/03/09 02:07:09;;;;;;;;;2.00;2.00;19.40;99.90;;;;;;5046568;28;10098;-57
2022/03/09 02:09:44;;;;;;;;;2.00;2.00;19.30;99.90;;;;;;5042611;28;9619;-58
2022/03/09 02:12:19;;;;;;;;;3.00;3.00;19.20;99.90;;;;;;5048529;28;9778;-56
2022/03/09 02:14:51;;;;;;;;;2.25;2.25;19.20;99.90;;;;;;5048516;28;9709;-57
2022/03/09 02:17:29;;;;;;;;;5.00;4.00;19.20;99.90;;;;;;5054531;28;9783;-57
2022/03/09 02:19:59;;;;;;;;;3.50;2.75;19.10;99.90;;;;;;5048618;28;9953;-58
2022/03/09 02:22:38;;;;;;;;;3.00;3.00;19.00;99.90;;;;;;5050228;28;10095;-57
2022/03/09 02:25:15;;;;;;;;;3.25;3.25;19.00;99.90;;;;;;5050806;28;9912;-57
2022/03/09 02:27:45;;;;;;;;;3.00;2.00;19.00;99.90;;;;;;5050935;28;10011;-58
2022/03/09 02:30:20;;;;;;;;;2.00;2.00;19.00;99.90;;;;;;5047679;28;10079;-58
2022/03/09 02:32:51;;;;;;;;;0.75;0.75;18.90;99.90;;;;;;5048072;28;9972;-58
2022/03/09 02:35:21;;;;;;;;;2.75;2.75;18.90;99.90;;;;;;5051270;28;10800;-57
2022/03/09 02:37:52;;;;;;;;;3.00;3.00;18.90;99.90;;;;;;5054089;28;10895;-56
2022/03/09 02:40:24;;;;;;;;;6.25;3.00;18.90;99.90;;;;;;5047956;28;10203;-60
2022/03/09 02:42:54;;;;;;;;;2.75;2.75;18.80;99.90;;;;;;5049342;28;10325;-58
2022/03/09 02:45:25;;;;;;;;;4.25;4.25;18.80;99.90;;;;;;5047115;28;10731;-58
2022/03/09 02:47:56;;;;;;;;;4.50;4.50;18.80;99.90;;;;;;5047741;28;10536;-59
2022/03/09 02:50:27;;;;;;;;;6.50;5.50;18.60;99.90;;;;;;5050905;28;10530;-60
2022/03/09 02:52:57;;;;;;;;;5.00;5.00;18.60;99.90;;;;;;5046998;28;10384;-59
2022/03/09 02:55:27;;;;;;;;;3.25;3.25;18.50;99.90;;;;;;5045439;28;10746;-58
2022/03/09 02:57:59;;;;;;;;;4.00;4.00;18.50;99.90;;;;;;5047707;28;10488;-60
2022/03/09 03:00:32;;;;;;;;;4.00;4.00;18.50;99.90;;;;;;5041461;28;10479;-59
2022/03/09 03:03:08;;;;;;;;;2.50;2.50;18.40;99.90;;;;;;5041664;28;10374;-60
2022/03/09 03:05:41;;;;;;;;;1.25;1.00;18.40;99.90;;;;;;5047409;28;10387;-62
2022/03/09 03:08:13;;;;;;;;;4.00;4.00;18.40;99.90;;;;;;5024766;28;10077;-58
2022/03/09 03:10:46;;;;;;;;;3.25;2.25;18.30;99.90;;;;;;5046191;28;10320;-61
2022/03/09 03:13:17;;;;;;;;;3.50;3.00;18.30;99.90;;;;;;5049143;28;10241;-58
2022/03/09 03:15:48;;;;;;;;;4.75;3.75;18.30;99.90;;;;;;5059157;28;10313;-60
2022/03/09 03:18:20;;;;;;;;;3.25;3.25;18.30;99.90;;;;;;5049542;28;10261;-60
2022/03/09 03:20:54;;;;;;;;;5.00;4.00;18.30;99.90;;;;;;5057730;28;10224;-58
2022/03/09 03:23:28;;;;;;;;;4.00;4.00;18.20;99.90;;;;;;5049813;28;10313;-61
2022/03/09 03:26:00;;;;;;;;;3.50;3.50;18.20;99.90;;;;;;5047819;28;10351;-61
2022/03/09 03:28:34;;;;;;;;;4.25;4.25;18.10;99.90;;;;;;5049396;28;10455;-59
2022/03/09 03:31:06;;;;;;;;;4.75;4.75;18.10;99.90;;;;;;5048928;28;10375;-58
2022/03/09 03:33:36;;;;;;;;;4.50;4.25;18.00;99.90;;;;;;5052256;28;10213;-58
2022/03/09 03:36:09;;;;;;;;;5.00;5.00;17.90;99.90;;;;;;5051375;28;10583;-57
2022/03/09 03:38:40;;;;;;;;;5.75;4.75;17.90;99.90;;;;;;5052806;28;10496;-59
2022/03/09 03:41:13;;;;;;;;;4.50;4.50;17.90;99.90;;;;;;5039592;28;11337;-59
2022/03/09 03:43:44;;;;;;;;;2.00;2.00;17.90;99.90;;;;;;5055461;28;11020;-59
2022/03/09 03:46:17;;;;;;;;;5.00;5.00;17.90;99.90;;;;;;5052676;28;11306;-60
2022/03/09 03:48:47;;;;;;;;;4.00;4.00;17.80;99.90;;;;;;5058769;28;10550;-58
2022/03/09 03:51:18;;;;;;;;;7.25;4.50;17.80;99.90;;;;;;5054351;28;10552;-59
2022/03/09 03:53:50;;;;;;;;;5.00;5.00;17.80;99.90;;;;;;5057539;28;10663;-58
2022/03/09 03:56:21;;;;;;;;;5.25;5.25;17.70;99.90;;;;;;5050784;28;10696;-60
2022/03/09 03:58:57;;;;;;;;;4.00;4.00;17.60;99.90;;;;;;5047475;28;10684;-62
2022/03/09 04:01:27;;;;;;;;;4.75;4.00;17.60;99.90;;;;;;5047864;28;10680;-57
2022/03/09 04:04:02;;;;;;;;;5.25;4.50;17.50;99.90;;;;;;5055843;28;10694;-59
2022/03/09 04:06:33;;;;;;;;;6.00;4.75;17.50;99.90;;;;;;5041959;28;10597;-58
2022/03/09 04:09:03;;;;;;;;;3.75;3.75;17.50;99.90;;;;;;5049964;28;10732;-60
2022/03/09 04:11:34;;;;;;;;;5.50;5.50;17.50;99.90;;;;;;5049998;28;10605;-59
2022/03/09 04:14:04;;;;;;;;;6.25;4.75;17.40;99.90;;;;;;5054995;28;10662;-60
2022/03/09 04:16:35;;;;;;;;;6.25;6.25;17.40;99.90;;;;;;5046524;28;10892;-58
2022/03/09 04:19:06;;;;;;;;;5.25;5.00;17.40;99.90;;;;;;5047181;28;10738;-58
2022/03/09 04:21:38;;;;;;;;;4.00;4.00;17.40;99.90;;;;;;5054181;28;10828;-58
2022/03/09 04:24:09;;;;;;;;;7.00;5.00;17.30;99.90;;;;;;5048262;28;10767;-57
2022/03/09 04:26:39;;;;;;;;;7.00;7.00;17.30;99.90;;;;;;5049484;28;10866;-58
2022/03/09 04:29:10;;;;;;;;;5.75;5.75;17.20;99.90;;;;;;5049238;28;10828;-59
2022/03/09 04:31:43;;;;;;;;;2.75;2.75;17.20;99.90;;;;;;5045376;28;10757;-57
2022/03/09 04:34:19;;;;;;;;;7.75;6.50;17.20;99.90;;;;;;5047238;28;10850;-59
2022/03/09 04:36:49;;;;;;;;;10.00;6.75;17.10;99.90;;;;;;5050216;28;10822;-59
2022/03/09 04:39:21;;;;;;;;;4.75;4.75;17.10;99.90;;;;;;5049467;28;10833;-59
2022/03/09 04:41:51;;;;;;;;;4.00;4.00;17.10;99.90;;;;;;5042669;28;10645;-60
2022/03/09 04:44:21;;;;;;;;;5.75;5.00;17.00;99.90;;;;;;5043729;28;10593;-58
2022/03/09 04:46:53;;;;;;;;;5.00;5.00;17.00;99.90;;;;;;5056778;28;10850;-58
2022/03/09 04:49:24;;;;;;;;;3.50;3.50;16.90;99.90;;;;;;5046989;28;10786;-58
2022/03/09 04:51:55;;;;;;;;;4.50;4.00;16.90;99.90;;;;;;5056094;28;10710;-58
2022/03/09 04:54:27;;;;;;;;;8.25;5.25;16.90;99.90;;;;;;5041278;28;10522;-59
2022/03/09 04:56:57;;;;;;;;;3.50;3.50;16.80;99.90;;;;;;5049532;28;10813;-59
2022/03/09 04:59:30;;;;;;;;;5.00;5.00;16.80;99.90;;;;;;5046267;28;10883;-60
2022/03/09 05:02:01;;;;;;;;;6.25;5.75;16.80;99.90;;;;;;5053468;28;10895;-59
2022/03/09 05:04:32;;;;;;;;;4.00;4.00;16.80;99.90;;;;;;5045720;28;11009;-58
2022/03/09 05:07:04;;;;;;;;;3.50;3.50;16.70;99.90;;;;;;5060654;28;11050;-58
2022/03/09 05:09:35;;;;;;;;;6.50;6.00;16.70;99.90;;;;;;5048346;28;10990;-60
2022/03/09 05:12:07;;;;;;;;;4.25;4.25;16.70;99.90;;;;;;5049167;28;10999;-60
2022/03/09 05:14:38;;;;;;;;;4.75;4.75;16.70;99.90;;;;;;5048434;28;10980;-59
2022/03/09 05:17:10;;;;;;;;;5.00;5.00;16.60;99.90;;;;;;5042387;28;11084;-59
2022/03/09 05:19:41;;;;;;;;;5.00;5.00;16.50;99.90;;;;;;5054926;28;10894;-58
2022/03/09 05:22:11;;;;;;;;;6.50;5.25;16.50;99.90;;;;;;5051289;28;11641;-56
2022/03/09 05:24:53;;;;;;;;;5.00;4.75;16.50;99.90;;;;;;5049289;28;10951;-58
2022/03/09 05:27:27;;;;;;;;;3.00;3.00;16.40;99.90;;;;;;5059130;28;11164;-57
2022/03/09 05:29:58;;;;;;;;;3.75;3.75;16.40;99.90;;;;;;5045107;28;11057;-56
2022/03/09 05:32:29;;;;;;;;;5.25;5.00;16.30;99.90;;;;;;5048400;28;11604;-59
2022/03/09 05:35:00;;;;;;;;;5.25;4.25;16.30;99.90;;;;;;5045930;28;11072;-55
2022/03/09 05:37:39;;;;;;;;;4.00;4.00;16.30;99.90;;;;;;5047533;28;11890;-58
2022/03/09 05:40:13;;;;;;;;;6.00;4.25;16.30;99.90;;;;;;5046772;28;11130;-57
2022/03/09 05:42:44;;;;;;;;;3.25;3.25;16.30;99.90;;;;;;5049941;28;11024;-59
2022/03/09 05:45:20;;;;;;;;;8.50;8.50;16.30;99.90;;;;;;5051073;28;11145;-57
2022/03/09 05:47:54;;;;;;;;;3.75;3.75;16.20;99.90;;;;;;5043501;28;11044;-57
2022/03/09 05:50:26;;;;;;;;;8.75;5.75;16.20;99.90;;;;;;5054582;28;11075;-57
2022/03/09 05:53:00;;;;;;;;;6.00;6.00;16.10;99.90;;;;;;5047574;28;11451;-57
2022/03/09 05:55:32;;;;;;;;;5.25;3.75;16.10;99.90;;;;;;5052450;28;11214;-58
2022/03/09 05:58:04;;;;;;;;;7.25;7.25;16.00;99.90;;;;;;5050873;28;11971;-57
2022/03/09 06:00:35;;;;;;;;;7.00;7.00;16.00;99.90;;;;;;5051734;28;11484;-57
2022/03/09 06:03:05;;;;;;;;;7.75;6.75;15.90;99.90;;;;;;5042716;28;11455;-56
2022/03/09 06:05:37;;;;;;;;;5.00;5.00;16.00;99.90;;;;;;5048746;28;11455;-56
2022/03/09 06:08:09;;;;;;;;;5.00;5.00;15.90;99.90;;;;;;5042038;28;11502;-55
2022/03/09 06:10:42;;;;;;;;;8.25;5.75;15.90;99.90;;;;;;5048931;28;11451;-57
2022/03/09 06:13:15;;;;;;;;;8.00;6.00;15.90;99.90;;;;;;5047875;28;11490;-55
2022/03/09 06:15:44;;;;;;;;;1.00;1.00;15.90;99.90;;;;;;5046434;28;11458;-56
2022/03/09 06:18:17;;;;;;;;;4.25;4.25;15.80;99.90;;;;;;5049143;28;11165;-57
2022/03/09 06:20:47;;;;;;;;;4.50;4.50;15.80;99.90;;;;;;5047635;28;11670;-57
2022/03/09 06:23:19;;;;;;;;;7.00;6.00;15.70;99.90;;;;;;5050956;28;11134;-58
2022/03/09 06:25:50;;;;;;;;;4.25;4.25;15.80;99.90;;;;;;5045336;28;11463;-56
2022/03/09 06:28:21;;;;;;;;;3.75;3.75;15.70;99.90;;;;;;5051233;28;11478;-57
2022/03/09 06:30:53;;;;;;;;;4.50;4.50;15.70;99.90;;;;;;5042013;28;11560;-58
2022/03/09 06:33:26;;;;;;;;;4.25;4.25;15.70;99.90;;;;;;5049517;28;11457;-58
2022/03/09 06:35:57;;;;;;;;;4.75;4.75;15.70;99.90;;;;;;5049832;28;11484;-56
2022/03/09 06:38:28;;;;;;;;;3.50;3.50;15.60;99.90;;;;;;5049603;28;11219;-58
2022/03/09 06:40:59;;;;;;;;;6.75;6.75;15.60;99.90;;;;;;5048251;28;11869;-58
2022/03/09 06:43:29;;;;;;;;;5.00;5.00;15.50;99.90;;;;;;5048558;28;11469;-57
2022/03/09 06:46:03;;;;;;;;;3.00;3.00;15.50;99.90;;;;;;5044093;28;11507;-57
2022/03/09 06:48:35;;;;;;;;;3.75;3.75;15.40;99.90;;;;;;5047583;28;12199;-58
2022/03/09 06:51:06;;;;;;;;;5.75;5.00;15.40;99.90;;;;;;5050989;28;11451;-58
2022/03/09 06:53:39;;;;;;;;;7.25;6.00;15.30;99.90;;;;;;5054256;28;12066;-58
2022/03/09 06:56:11;;;;;;;;;4.25;3.75;15.30;99.90;;;;;;5050592;28;11452;-56
2022/03/09 06:58:42;;;;;;;;;3.75;3.75;15.30;99.90;;;;;;5047555;28;12232;-57
2022/03/09 07:01:14;;;;;;;;;5.50;5.50;15.20;99.90;;;;;;5042829;28;11514;-58
2022/03/09 07:03:44;;;;;;;;;5.00;5.00;15.30;99.90;;;;;;5048815;28;11466;-56
2022/03/09 07:06:15;;;;;;;;;4.75;4.75;15.30;99.90;;;;;;5045020;28;11474;-57
2022/03/09 07:08:46;;;;;;;;;2.00;2.00;15.20;99.90;;;;;;5046974;28;12273;-57
2022/03/09 07:11:15;;;;;;;;;5.00;2.00;15.20;99.90;;;;;;5056967;28;11423;-56
2022/03/09 07:13:46;;;;;;;;;6.00;6.00;15.20;99.90;;;;;;5050153;28;11602;-56
2022/03/09 07:16:18;;;;;;;;;4.25;4.25;15.10;99.90;;;;;;5052200;28;11466;-57
2022/03/09 07:18:50;;;;;;;;;4.75;4.75;15.10;99.90;;;;;;5053481;28;11440;-56
2022/03/09 07:21:22;;;;;;;;;6.25;5.50;15.10;99.90;;;;;;5055120;28;11473;-56
2022/03/09 07:23:57;;;;;;;;;6.00;5.00;15.00;99.90;;;;;;5054368;28;11470;-55
2022/03/09 07:26:27;;;;;;;;;7.75;5.25;15.00;99.90;;;;;;5051579;28;11467;-56
2022/03/09 07:28:57;;;;;;;;;6.00;6.00;14.90;99.90;;;;;;5046821;28;11490;-56
2022/03/09 07:31:28;;;;;;;;;5.50;5.50;14.90;99.90;;;;;;5053174;28;11485;-57
2022/03/09 07:34:01;;;;;;;;;6.00;6.00;14.90;99.90;;;;;;5049056;28;11474;-56
2022/03/09 07:36:31;;;;;;;;;8.00;8.00;14.80;99.90;;;;;;5057326;28;12532;-58
2022/03/09 07:39:01;;;;;;;;;4.50;4.50;14.70;99.90;;;;;;5052887;28;12225;-54
2022/03/09 07:41:47;;;;;;;;;8.75;8.75;14.70;99.90;;;;;;5051313;28;11511;-55
2022/03/09 07:44:19;;;;;;;;;7.25;5.00;14.70;99.90;;;;;;5053770;28;11429;-56
2022/03/09 07:46:51;;;;;;;;;5.00;5.00;14.70;99.90;;;;;;5050762;28;11695;-54
2022/03/09 07:49:23;;;;;;;;;6.00;6.00;14.70;99.90;;;;;;5051852;28;11474;-56
2022/03/09 07:51:54;;;;;;;;;7.00;5.75;14.60;99.90;;;;;;5053118;28;11457;-57
2022/03/09 07:54:26;;;;;;;;;6.50;5.25;14.50;99.90;;;;;;5049715;28;11426;-56
2022/03/09 07:56:58;;;;;;;;;8.75;6.25;14.50;99.90;;;;;;5053119;28;11478;-57
2022/03/09 07:59:30;;;;;;;;;6.25;6.25;14.50;99.90;;;;;;5050322;28;11507;-57
2022/03/09 08:02:00;;;;;;;;;7.50;7.50;14.50;99.90;;;;;;5054023;28;11439;-57
2022/03/09 08:04:35;;;;;;;;;6.00;6.00;14.50;99.90;;;;;;5047225;28;11535;-55
2022/03/09 08:07:10;;;;;;;;;6.00;5.75;14.50;99.90;;;;;;5047828;28;11489;-54
2022/03/09 08:09:40;;;;;;;;;6.00;6.00;14.40;99.90;;;;;;5057165;28;11535;-58
2022/03/09 08:12:12;;;;;;;;;6.50;6.50;14.40;99.90;;;;;;5046543;28;12353;-56
2022/03/09 08:14:43;;;;;;;;;6.00;6.00;14.40;99.90;;;;;;5052083;28;12233;-56
2022/03/09 08:17:13;;;;;;;;;5.00;5.00;14.40;99.90;;;;;;5050444;28;11536;-57
2022/03/09 08:19:46;;;;;;;;;9.00;7.25;14.30;99.90;;;;;;5051936;28;11464;-56
2022/03/09 08:22:17;;;;;;;;;5.75;5.00;14.30;99.90;;;;;;5054261;28;11504;-56
2022/03/09 08:24:48;;;;;;;;;9.00;7.00;14.30;99.90;;;;;;5052517;28;11513;-56
2022/03/09 08:27:18;;;;;;;;;8.25;8.25;14.30;99.90;;;;;;5054346;28;11464;-56
2022/03/09 08:29:50;;;;;;;;;10.25;10.00;14.20;99.90;;;;;;5057293;28;11521;-55
2022/03/09 08:32:21;;;;;;;;;4.75;4.00;14.20;99.90;;;;;;5052564;28;11524;-55
2022/03/09 08:34:54;;;;;;;;;8.50;7.25;14.20;99.90;;;;;;5056142;28;11512;-56
2022/03/09 08:37:25;;;;;;;;;7.25;7.25;14.10;99.90;;;;;;5051396;28;11533;-56
2022/03/09 08:39:59;;;;;;;;;7.25;7.25;14.10;99.90;;;;;;5049511;28;12374;-56
2022/03/09 08:42:30;;;;;;;;;9.00;8.25;14.10;99.90;;;;;;5037718;28;11518;-56
2022/03/09 08:45:01;;;;;;;;;6.00;6.00;14.10;99.90;;;;;;5047725;28;11534;-54
2022/03/09 08:47:34;;;;;;;;;5.25;5.25;14.00;99.90;;;;;;5051238;28;11477;-55
2022/03/09 08:50:09;;;;;;;;;7.25;6.25;14.00;99.90;;;;;;5056657;28;11508;-54
2022/03/09 08:53:02;;;;;;;;;7.50;6.75;14.00;99.90;;;;;;5046720;28;11568;-56
2022/03/09 08:55:34;;;;;;;;;6.00;6.00;13.90;99.90;;;;;;5054760;28;11513;-56
2022/03/09 08:58:04;;;;;;;;;8.00;7.00;13.90;99.90;;;;;;5045660;28;11558;-56
2022/03/09 09:00:35;;;;;;;;;7.75;6.50;13.80;99.90;;;;;;5056543;28;12267;-55
2022/03/09 09:03:05;;;;;;;;;7.75;6.00;13.80;99.90;;;;;;5042360;28;11538;-56
2022/03/09 09:05:36;;;;;;;;;8.00;8.00;13.80;99.90;;;;;;5054918;28;11484;-56
2022/03/09 09:08:07;;;;;;;;;7.00;6.00;13.70;99.90;;;;;;5042848;28;11513;-56
2022/03/09 09:10:38;;;;;;;;;7.75;6.00;13.70;99.90;;;;;;5055996;28;11519;-55
2022/03/09 09:13:11;;;;;;;;;8.75;6.00;13.70;99.90;;;;;;5052508;28;11542;-57
2022/03/09 09:15:43;;;;;;;;;6.25;6.25;13.70;99.90;;;;;;5052608;28;11564;-56
2022/03/09 09:18:13;;;;;;;;;8.50;6.50;13.60;99.90;;;;;;5047650;28;11547;-56
2022/03/09 09:20:50;;;;;;;;;4.75;4.50;13.60;99.90;;;;;;5049957;28;11458;-57
2022/03/09 09:23:22;;;;;;;;;6.75;6.25;13.60;99.90;;;;;;5041285;28;11548;-53
2022/03/09 09:25:53;;;;;;;;;11.25;9.00;13.60;99.90;;;;;;5048509;28;11530;-56
2022/03/09 09:28:23;;;;;;;;;5.50;5.50;13.50;99.90;;;;;;5050789;28;11705;-56
2022/03/09 09:30:55;;;;;;;;;8.25;8.25;13.50;99.90;;;;;;5052325;28;11549;-56
2022/03/09 09:33:27;;;;;;;;;10.00;8.00;13.40;99.90;;;;;;5046809;28;11531;-56
2022/03/09 09:35:59;;;;;;;;;7.25;6.75;13.30;99.90;;;;;;5049400;28;11499;-57
2022/03/09 09:38:30;;;;;;;;;10.25;8.25;13.30;99.90;;;;;;5051880;28;11581;-56
2022/03/09 09:41:02;;;;;;;;;8.50;6.50;13.30;99.90;;;;;;5051156;28;12308;-57
2022/03/09 09:43:33;;;;;;;;;12.25;12.25;13.30;99.90;;;;;;5049292;28;11558;-57
2022/03/09 09:46:05;;;;;;;;;20.25;17.00;13.30;99.90;;;;;;5051313;28;11654;-56
2022/03/09 09:48:38;;;;;;;;;16.50;15.50;13.30;99.90;;;;;;5045725;28;11611;-55
2022/03/09 09:51:08;;;;;;;;;18.50;18.50;13.20;99.90;;;;;;5048190;28;11505;-56
2022/03/09 09:53:46;;;;;;;;;23.00;22.00;13.20;99.90;;;;;;5048600;28;11566;-57
2022/03/09 09:56:17;;;;;;;;;20.00;18.75;13.20;99.90;;;;;;5049805;28;11597;-55
2022/03/09 09:58:49;;;;;;;;;14.25;13.50;13.10;99.90;;;;;;5054212;28;11580;-55
2022/03/09 10:01:20;;;;;;;;;17.25;15.50;13.10;99.90;;;;;;5049372;28;11607;-56
2022/03/09 10:03:51;;;;;;;;;17.75;17.75;13.10;99.90;;;;;;5051360;28;11556;-57
2022/03/09 10:06:22;;;;;;;;;15.25;14.00;13.10;99.90;;;;;;5049634;28;11556;-56
2022/03/09 10:09:03;;;;;;;;;6.75;6.75;13.10;99.90;;;;;;5051806;28;11603;-55
2022/03/09 10:11:56;;;;;;;;;5.25;5.25;13.10;99.90;;;;;;5051022;28;12355;-57
2022/03/09 10:14:50;;;;;;;;;5.50;5.50;13.00;99.90;;;;;;5051732;28;11485;-56
2022/03/09 10:17:34;;;;;;;;;6.25;6.25;13.00;99.90;;;;;;5049483;28;12276;-56
2022/03/09 10:20:12;;;;;;;;;7.25;7.25;12.90;99.90;;;;;;5047881;28;11527;-55
2022/03/09 10:22:45;;;;;;;;;6.00;6.00;12.80;99.90;;;;;;5052204;28;11533;-56
2022/03/09 10:25:23;;;;;;;;;8.25;8.25;12.80;99.90;;;;;;5045947;28;11479;-56
2022/03/09 10:27:59;;;;;;;;;4.25;4.25;12.80;99.90;;;;;;5050994;28;11500;-56
2022/03/09 10:30:36;;;;;;;;;8.00;6.75;12.80;99.90;;;;;;5052497;28;11599;-56
2022/03/09 10:33:10;;;;;;;;;6.50;6.50;12.70;99.90;;;;;;5051155;28;11540;-57
2022/03/09 10:35:46;;;;;;;;;5.75;5.00;12.60;99.90;;;;;;5049821;28;13620;-54
2022/03/09 10:38:19;;;;;;;;;9.00;6.00;12.60;99.90;;;;;;5050059;28;11515;-54
2022/03/09 10:40:55;;;;;;;;;6.00;6.00;12.60;99.90;;;;;;5043791;28;12798;-56
2022/03/09 10:43:30;;;;;;;;;5.00;5.00;12.60;99.90;;;;;;5045207;28;11558;-56
2022/03/09 10:46:02;;;;;;;;;6.25;6.25;12.60;99.90;;;;;;5048282;28;12871;-57
2022/03/09 10:49:01;;;;;;;;;5.00;5.00;12.50;99.90;;;;;;5052313;28;12305;-55
2022/03/09 10:51:40;;;;;;;;;6.00;6.00;12.40;99.90;;;;;;5052390;28;11549;-56
2022/03/09 10:54:18;;;;;;;;;2.00;2.00;12.40;99.90;;;;;;5047294;28;11500;-56
2022/03/09 10:56:49;;;;;;;;;5.00;5.00;12.40;99.90;;;;;;5047842;28;12313;-55
2022/03/09 10:59:24;;;;;;;;;3.50;3.50;12.40;99.90;;;;;;5046602;28;11527;-54
2022/03/09 11:02:09;;;;;;;;;4.25;4.00;12.40;99.90;;;;;;5046581;28;11534;-55
2022/03/09 11:04:39;;;;;;;;;5.50;4.75;12.30;99.90;;;;;;5049381;28;11517;-55
2022/03/09 11:07:11;;;;;;;;;6.25;6.25;12.30;99.90;;;;;;5048683;28;11562;-56
2022/03/09 11:09:49;;;;;;;;;6.75;6.75;12.30;99.90;;;;;;5052188;28;11519;-56
2022/03/09 11:12:21;;;;;;;;;13.00;11.00;12.30;99.90;;;;;;5048130;28;11582;-55
2022/03/09 11:14:52;;;;;;;;;17.67;17.67;12.20;99.90;;;;;;5052063;28;8859;-56
2022/03/09 11:17:24;;;;;;;;;19.00;19.00;12.20;99.90;;;;;;5052334;28;8851;-55
2022/03/09 11:19:55;;;;;;;;;24.67;24.67;12.20;99.90;;;;;;5053829;28;8868;-56
2022/03/09 11:22:26;;;;;;;;;25.00;25.00;12.20;99.90;;;;;;5050543;28;8836;-56
2022/03/09 11:24:57;;;;;;;;;18.67;18.67;12.10;99.90;;;;;;5054794;28;8878;-56
2022/03/09 11:27:31;;;;;;;;;15.67;15.67;12.10;99.90;;;;;;5046637;28;8854;-56
2022/03/09 11:30:21;;;;;;;;;12.33;12.33;12.10;99.90;;;;;;5047600;28;8869;-56
2022/03/09 11:32:55;;;;;;;;;5.00;5.00;12.10;99.90;;;;;;5048580;28;8825;-56
2022/03/09 11:35:38;;;;;;;;;5.00;4.75;12.00;99.90;;;;;;5052335;28;12302;-57
2022/03/09 11:38:33;;;;;;;;;6.00;6.00;12.00;99.90;;;;;;5055852;28;11498;-54
2022/03/09 11:41:16;;;;;;;;;4.25;4.25;11.90;99.90;;;;;;5052639;28;11518;-55
2022/03/09 11:43:46;;;;;;;;;4.25;4.00;11.90;99.90;;;;;;5053498;28;12676;-55
2022/03/09 11:46:17;;;;;;;;;7.00;5.75;11.90;99.90;;;;;;5056200;28;11554;-56
2022/03/09 11:48:57;;;;;;;;;5.00;5.00;11.90;99.90;;;;;;5052956;28;11533;-56
2022/03/09 11:51:30;;;;;;;;;4.75;4.75;11.90;99.90;;;;;;5053271;28;11531;-54
2022/03/09 11:54:01;;;;;;;;;4.25;4.25;11.80;99.90;;;;;;5050684;28;11506;-56
2022/03/09 11:56:41;;;;;;;;;6.00;6.00;11.80;99.90;;;;;;5052686;28;11538;-56
2022/03/09 11:59:15;;;;;;;;;4.00;4.00;11.70;99.90;;;;;;5051590;28;12265;-56
2022/03/09 12:01:58;;;;;;;;;6.00;6.00;11.70;99.90;;;;;;5053256;28;11525;-56
2022/03/09 12:04:45;;;;;;;;;5.50;5.50;11.60;99.90;;;;;;5049399;28;11509;-56
2022/03/09 12:07:35;;;;;;;;;5.00;5.00;11.60;99.90;;;;;;5055619;28;11512;-55
2022/03/09 12:10:11;;;;;;;;;3.00;3.00;11.60;99.90;;;;;;5050451;28;11515;-56
2022/03/09 12:13:13;;;;;;;;;4.25;4.25;11.60;99.90;;;;;;5052007;28;11498;-55
2022/03/09 12:16:17;;;;;;;;;6.00;4.00;11.50;99.90;;;;;;5057167;28;11516;-56
2022/03/09 12:18:51;;;;;;;;;5.75;5.75;11.50;99.90;;;;;;5049516;28;11477;-56
2022/03/09 12:21:27;;;;;;;;;4.50;4.50;11.40;99.90;;;;;;5054405;28;11526;-56
2022/03/09 12:24:06;;;;;;;;;5.25;5.25;11.40;99.90;;;;;;5042903;28;11565;-53
2022/03/09 12:26:51;;;;;;;;;4.25;4.25;11.40;99.90;;;;;;5051966;28;11518;-56
2022/03/09 12:29:24;;;;;;;;;8.25;4.50;11.40;99.90;;;;;;5054339;28;11532;-54
2022/03/09 12:32:01;;;;;;;;;7.50;6.50;11.40;99.90;;;;;;5048521;28;11561;-56
2022/03/09 12:34:46;;;;;;;;;6.00;5.00;11.40;99.90;;;;;;5044371;28;11543;-58
2022/03/09 12:37:24;;;;;;;;;5.00;5.00;11.30;99.90;;;;;;5005862;28;11554;-49
2022/03/09 12:40:01;;;;;;;;;5.00;5.00;11.30;99.90;;;;;;5015013;28;11523;-50
2022/03/09 12:42:33;;;;;;;;;4.00;4.00;11.30;99.90;;;;;;5011466;28;11527;-49
2022/03/09 12:45:04;;;;;;;;;3.00;3.00;11.30;99.90;;;;;;5012189;28;11528;-49
2022/03/09 12:47:36;;;;;;;;;8.00;5.50;11.30;99.90;;;;;;5004998;28;11578;-49
2022/03/09 12:50:07;;;;;;;;;5.00;3.75;11.20;99.90;;;;;;5011459;28;11680;-50
2022/03/09 12:52:44;;;;;;;;;4.75;4.75;11.20;99.90;;;;;;5008638;28;11528;-46
2022/03/09 12:55:19;;;;;;;;;4.25;4.25;11.20;99.90;;;;;;5012464;28;11554;-47
2022/03/09 12:57:58;;;;;;;;;3.00;3.00;11.20;99.90;;;;;;5011114;28;11516;-50
2022/03/09 13:00:31;;;;;;;;;3.75;3.75;11.20;99.90;;;;;;5013307;28;11507;-48
2022/03/09 13:03:04;;;;;;;;;2.50;2.50;11.10;99.90;;;;;;5007165;28;12317;-51
2022/03/09 13:05:38;;;;;;;;;3.00;3.00;11.10;99.90;;;;;;5010303;28;11532;-51
2022/03/09 13:08:10;;;;;;;;;4.00;4.00;11.10;99.90;;;;;;5025023;28;11524;-51
2022/03/09 13:10:49;;;;;;;;;4.00;3.75;11.10;99.90;;;;;;5011438;28;11523;-50
2022/03/09 13:13:30;;;;;;;;;2.50;2.50;11.00;99.90;;;;;;5011399;28;11488;-51
2022/03/09 13:16:02;;;;;;;;;2.75;2.75;11.00;99.90;;;;;;5006072;28;11479;-50
2022/03/09 13:18:34;;;;;;;;;3.00;3.00;11.00;99.90;;;;;;5013190;28;11503;-49